Tetien Trader — SYDU — position and weather

sailwx.info

Track history (hours):
 
Tides and Currents Weather Stations Pressure Air Temp Water Temp Dewpoint Dewpoint Depression Visibility Wind Speed Wind Dir Waves Ship Positions

Tetien Trader

Last reported at 2014-Nov-14 12:33 UTC. Time now 2014-Nov-21 20:33 UTC.
Position N 48°42' W 126°24'.

Length 225 m; draft 13.1 m.

Type: Cargo ship. MMSI: 239875000.

Date/timePositionNaut miles runAvg speedWind from/ knotsBaromVisibWave heightAir tempDewpointWater temp
2014-Nov-14 12:33N 48°42' W 126°24'1212.6
2014-Nov-14 11:33N 48°39' W 126°05'1312.5
2014-Nov-14 10:33N 48°37' W 125°47'1212.5
2014-Nov-14 09:33N 48°34' W 125°29'1312.6
2014-Nov-14 08:33N 48°31' W 125°10'1313.2
2014-Nov-14 07:33N 48°31' W 124°50'1313.5
2014-Nov-14 06:33N 48°27' W 124°31'1413.5
2014-Nov-14 05:33N 48°22' W 124°12'1313.5
2014-Nov-14 04:33N 48°17' W 123°53'1312.9
2014-Nov-14 03:32N 48°16' W 123°33'1110.9
2014-Nov-14 02:33N 48°23' W 123°22'9 9.2
2014-Nov-14 01:33N 48°30' W 123°13'1212.5
2014-Nov-14 00:33N 48°43' W 123°13'10 9.8
2014-Nov-13 23:33N 48°51' W 123°04'1313.1
2014-Nov-13 22:33N 49°00' W 123°18'1111.4
2014-Nov-13 21:33N 49°11' W 123°20'1110.8
2014-Nov-13 20:33N 49°19' W 123°09'3 3.3
2014-Nov-13 19:32N 49°17' W 123°04'0 0.0
2014-Nov-13 18:32N 49°17' W 123°04'0 0.0
2014-Nov-13 17:32N 49°17' W 123°04'0 0.0
2014-Nov-13 16:32N 49°17' W 123°04'0 0.0
2014-Nov-13 15:32N 49°17' W 123°04'0 0.0
2014-Nov-13 14:32N 49°17' W 123°04'0 0.0
2014-Nov-13 13:29N 49°17' W 123°04'0 0.0
2014-Nov-13 12:32N 49°17' W 123°04'0 0.0
2014-Nov-13 11:32N 49°17' W 123°04'0 0.0
2014-Nov-13 10:32N 49°17' W 123°04'0 0.0
2014-Nov-13 09:32N 49°17' W 123°04'0 0.0
2014-Nov-13 08:32N 49°17' W 123°04'0 0.0
2014-Nov-13 07:32N 49°17' W 123°04'0 0.0
2014-Nov-13 06:32N 49°17' W 123°04'0 0.0
2014-Nov-13 05:32N 49°17' W 123°04'0 0.0
2014-Nov-13 04:32N 49°17' W 123°04'0 0.0
2014-Nov-13 03:32N 49°17' W 123°04'0 0.0
2014-Nov-13 02:32N 49°17' W 123°04'0 0.0
2014-Nov-13 01:32N 49°17' W 123°04'0 0.0
2014-Nov-13 00:32N 49°17' W 123°04'0 0.0
2014-Nov-12 23:32N 49°17' W 123°04'0 0.0
2014-Nov-12 22:32N 49°17' W 123°04'0 0.0
2014-Nov-12 21:32N 49°17' W 123°04'0 0.0
2014-Nov-12 20:31N 49°17' W 123°04'0 0.0
2014-Nov-12 19:34N 49°17' W 123°04'0 0.0
2014-Nov-12 18:31N 49°17' W 123°04'0 0.0
2014-Nov-12 17:31N 49°17' W 123°04'0 0.0
2014-Nov-12 16:31N 49°17' W 123°04'0 0.0
2014-Nov-12 15:31N 49°17' W 123°04'0 0.0
2014-Nov-12 14:31N 49°17' W 123°04'0 0.0
2014-Nov-12 13:31N 49°17' W 123°04'0 0.0
2014-Nov-12 12:31N 49°17' W 123°04'0 0.0
2014-Nov-12 11:31N 49°17' W 123°04'0 0.0
2014-Nov-12 10:31N 49°17' W 123°04'0 0.0
2014-Nov-12 09:31N 49°17' W 123°04'0 0.0
2014-Nov-12 08:31N 49°17' W 123°04'0 0.0
2014-Nov-12 07:31N 49°17' W 123°04'0 0.0
2014-Nov-12 06:31N 49°17' W 123°04'0 0.0
2014-Nov-12 05:34N 49°17' W 123°04'0 0.0
2014-Nov-12 04:31N 49°17' W 123°04'0 0.0
2014-Nov-12 03:31N 49°17' W 123°04'0 0.0
2014-Nov-12 02:31N 49°17' W 123°04'0 0.0
2014-Nov-12 01:31N 49°17' W 123°04'0 0.0
2014-Nov-12 00:31N 49°17' W 123°04'0 0.3
2014-Nov-11 23:33N 49°18' W 123°04'5 4.8
2014-Nov-11 22:33N 49°18' W 123°12'0 0.1
2014-Nov-11 21:33N 49°18' W 123°12'0 0.0
2014-Nov-11 20:30N 49°18' W 123°12'0 0.0
2014-Nov-11 19:30N 49°18' W 123°12'0 0.0
2014-Nov-11 18:33N 49°18' W 123°12'0 0.1
2014-Nov-11 17:33N 49°18' W 123°12'0 0.1
2014-Nov-11 16:33N 49°18' W 123°12'0 0.0
2014-Nov-11 15:33N 49°18' W 123°12'0 0.0
2014-Nov-11 14:33N 49°18' W 123°12'0 0.2
2014-Nov-11 13:33N 49°18' W 123°12'0 0.2
2014-Nov-11 12:33N 49°18' W 123°11'0 0.0
2014-Nov-11 11:33N 49°18' W 123°11'0 0.0
2014-Nov-11 10:33N 49°18' W 123°11'0 0.1
2014-Nov-11 09:33N 49°18' W 123°12'0 0.0
2014-Nov-11 08:33N 49°18' W 123°12'0 0.0
2014-Nov-11 07:33N 49°18' W 123°12'0 0.0
2014-Nov-11 06:33N 49°18' W 123°12'0 0.0
2014-Nov-11 05:33N 49°18' W 123°12'0 0.0
2014-Nov-11 04:33N 49°18' W 123°12'0 0.0
2014-Nov-11 03:33N 49°18' W 123°11'0 0.1
2014-Nov-11 02:33N 49°18' W 123°11'0 0.0
2014-Nov-11 01:33N 49°18' W 123°11'0 0.0
2014-Nov-11 00:33N 49°18' W 123°11'0 0.0
2014-Nov-10 23:33N 49°18' W 123°11'0 0.0
2014-Nov-10 22:33N 49°18' W 123°11'0 0.1
2014-Nov-10 21:33N 49°18' W 123°11'0 0.1
2014-Nov-10 20:33N 49°18' W 123°12'0 0.1
2014-Nov-10 19:33N 49°18' W 123°12'0 0.0
2014-Nov-10 18:33N 49°18' W 123°12'0 0.0
2014-Nov-10 17:33N 49°18' W 123°12'0 0.0
2014-Nov-10 16:33N 49°18' W 123°12'0 0.0
2014-Nov-10 15:33N 49°18' W 123°12'0 0.0
2014-Nov-10 14:33N 49°18' W 123°12'0 0.1
2014-Nov-10 13:33N 49°18' W 123°11'0 0.0
2014-Nov-10 12:33N 49°18' W 123°11'0 0.0
2014-Nov-10 11:33N 49°18' W 123°11'0 0.1
2014-Nov-10 10:33N 49°18' W 123°11'0 0.0
2014-Nov-10 09:33N 49°18' W 123°11'0 0.1
2014-Nov-10 08:33N 49°18' W 123°11'0 0.0
2014-Nov-10 07:33N 49°18' W 123°11'0 0.1
2014-Nov-10 06:30N 49°18' W 123°11'0 0.0
2014-Nov-10 05:33N 49°18' W 123°11'0 0.1
2014-Nov-10 04:33N 49°18' W 123°11'0 0.0
2014-Nov-10 03:33N 49°18' W 123°11'0 0.0
2014-Nov-10 02:33N 49°18' W 123°11'0 0.1
2014-Nov-10 01:33N 49°18' W 123°11'0 0.0
2014-Nov-10 00:30N 49°18' W 123°11'0 0.0
2014-Nov-09 23:30N 49°18' W 123°11'0 0.0
2014-Nov-09 22:33N 49°18' W 123°11'0 0.1
2014-Nov-09 21:30N 49°18' W 123°11'0 0.0
2014-Nov-09 20:30N 49°18' W 123°11'0 0.2
2014-Nov-09 19:33N 49°18' W 123°12'0 0.1
2014-Nov-09 18:33N 49°18' W 123°12'0 0.0
2014-Nov-09 17:30N 49°18' W 123°12'0 0.0
2014-Nov-09 16:33N 49°18' W 123°12'0 0.0
2014-Nov-09 15:33N 49°18' W 123°12'0 0.0
2014-Nov-09 14:33N 49°18' W 123°12'0 0.0
2014-Nov-09 13:33N 49°18' W 123°12'0 0.0
2014-Nov-09 12:33N 49°18' W 123°12'0 0.0
2014-Nov-09 11:30N 49°18' W 123°12'0 0.1
2014-Nov-09 10:33N 49°18' W 123°12'0 0.0
2014-Nov-09 09:30N 49°18' W 123°12'0 0.0
2014-Nov-09 08:33N 49°18' W 123°12'0 0.0
2014-Nov-09 07:33N 49°18' W 123°11'0 0.1
2014-Nov-09 06:33N 49°18' W 123°11'0 0.1
2014-Nov-09 05:33N 49°18' W 123°12'0 0.1
2014-Nov-09 04:33N 49°18' W 123°11'0 0.1
2014-Nov-09 03:33N 49°18' W 123°11'0 0.0
2014-Nov-09 02:30N 49°18' W 123°11'0 0.0
2014-Nov-09 01:33N 49°18' W 123°11'0 0.0
2014-Nov-09 00:33N 49°18' W 123°11'0 0.0
2014-Nov-08 23:33N 49°18' W 123°11'0 0.0
2014-Nov-08 22:33N 49°18' W 123°11'0 0.0
2014-Nov-08 21:33N 49°18' W 123°11'0 0.0
2014-Nov-08 20:33N 49°18' W 123°11'0 0.1
2014-Nov-08 19:33N 49°18' W 123°11'0 0.1
2014-Nov-08 18:33N 49°18' W 123°12'0 0.1
2014-Nov-08 17:33N 49°18' W 123°12'0 0.0
2014-Nov-08 16:33N 49°18' W 123°12'0 0.0
2014-Nov-08 15:33N 49°18' W 123°12'0 0.0
2014-Nov-08 14:33N 49°18' W 123°12'0 0.1
2014-Nov-08 13:30N 49°18' W 123°12'0 0.0
2014-Nov-08 12:30N 49°18' W 123°12'0 0.0
2014-Nov-08 11:33N 49°18' W 123°12'0 0.1
2014-Nov-08 10:33N 49°18' W 123°11'0 0.0
2014-Nov-08 09:33N 49°18' W 123°11'0 0.0
2014-Nov-08 08:33N 49°18' W 123°11'0 0.1
2014-Nov-08 07:33N 49°18' W 123°11'0 0.1
2014-Nov-08 06:33N 49°18' W 123°11'0 0.0
2014-Nov-08 05:33N 49°18' W 123°11'0 0.1
2014-Nov-08 04:33N 49°18' W 123°11'0 0.0
2014-Nov-08 03:33N 49°18' W 123°11'0 0.0
2014-Nov-08 02:33N 49°18' W 123°11'0 0.0
2014-Nov-08 01:33N 49°18' W 123°11'0 0.0
2014-Nov-08 00:33N 49°18' W 123°11'0 0.0
2014-Nov-07 23:33N 49°18' W 123°11'0 0.0
2014-Nov-07 22:33N 49°18' W 123°11'0 0.0
2014-Nov-07 21:33N 49°18' W 123°11'0 0.1
2014-Nov-07 20:33N 49°18' W 123°11'0 0.1
2014-Nov-07 19:33N 49°18' W 123°11'0 0.1
2014-Nov-07 18:33N 49°18' W 123°11'0 0.1
2014-Nov-07 17:33N 49°18' W 123°12'0 0.1
2014-Nov-07 16:33N 49°18' W 123°12'0 0.1
2014-Nov-07 15:33N 49°18' W 123°12'0 0.0
2014-Nov-07 14:33N 49°18' W 123°12'0 0.2
2014-Nov-07 13:33N 49°18' W 123°11'0 0.1
2014-Nov-07 12:33N 49°18' W 123°11'0 0.0
2014-Nov-07 11:33N 49°18' W 123°11'0 0.0
2014-Nov-07 10:33N 49°18' W 123°11'0 0.0
2014-Nov-07 09:33N 49°18' W 123°11'0 0.1
2014-Nov-07 08:33N 49°18' W 123°11'3 3.3
2014-Nov-07 07:33N 49°18' W 123°06'2 1.7
2014-Nov-07 06:33N 49°17' W 123°04'0 0.0
2014-Nov-07 05:33N 49°17' W 123°04'0 0.0
2014-Nov-07 04:33N 49°17' W 123°04'0 0.0
2014-Nov-07 03:33N 49°17' W 123°04'0 0.0
2014-Nov-07 02:33N 49°17' W 123°04'0 0.0
2014-Nov-07 01:33N 49°17' W 123°04'0 0.0
2014-Nov-07 00:33N 49°17' W 123°04'0 0.0
2014-Nov-06 23:33N 49°17' W 123°04'0 0.0
2014-Nov-06 22:33N 49°17' W 123°04'0 0.0
2014-Nov-06 21:32N 49°17' W 123°04'0 0.0
2014-Nov-06 20:32N 49°17' W 123°04'0 0.0
2014-Nov-06 19:32N 49°17' W 123°04'0 0.0
2014-Nov-06 18:32N 49°17' W 123°04'0 0.0
2014-Nov-06 17:32N 49°17' W 123°04'0 0.0
2014-Nov-06 16:32N 49°17' W 123°04'0 0.0
2014-Nov-06 15:32N 49°17' W 123°04'0 0.0
2014-Nov-06 14:32N 49°17' W 123°04'0 0.0
2014-Nov-06 13:32N 49°17' W 123°04'0 0.0
2014-Nov-06 12:32N 49°17' W 123°04'0 0.0
2014-Nov-06 11:32N 49°17' W 123°04'0 0.0
2014-Nov-06 10:32N 49°17' W 123°04'0 0.0
2014-Nov-06 09:32N 49°17' W 123°04'0 0.0
2014-Nov-06 08:32N 49°17' W 123°04'0 0.0
2014-Nov-06 07:32N 49°17' W 123°04'0 0.0
2014-Nov-06 06:32N 49°17' W 123°04'0 0.0
2014-Nov-06 05:32N 49°17' W 123°04'0 0.0
2014-Nov-06 04:32N 49°17' W 123°04'0 0.0
2014-Nov-06 03:32N 49°17' W 123°04'0 0.0
2014-Nov-06 02:32N 49°17' W 123°04'0 0.0
2014-Nov-06 01:32N 49°17' W 123°04'0 0.0
2014-Nov-06 00:32N 49°17' W 123°04'0 0.0
2014-Nov-05 23:32N 49°17' W 123°04'0 0.0
2014-Nov-05 22:32N 49°17' W 123°04'0 0.0
2014-Nov-05 21:32N 49°17' W 123°04'0 0.0
2014-Nov-05 20:32N 49°17' W 123°04'0 0.0
2014-Nov-05 19:32N 49°17' W 123°04'0 0.0
2014-Nov-05 18:32N 49°17' W 123°04'0 0.0
2014-Nov-05 17:32N 49°17' W 123°04'0 0.0
2014-Nov-05 16:29N 49°17' W 123°04'0 0.0
2014-Nov-05 15:32N 49°17' W 123°04'0 0.0
2014-Nov-05 14:32N 49°17' W 123°04'0 0.0
2014-Nov-05 13:29N 49°17' W 123°04'0 0.0
2014-Nov-05 12:32N 49°17' W 123°04'0 0.0
2014-Nov-05 11:32N 49°17' W 123°04'0 0.0
2014-Nov-05 10:32N 49°17' W 123°04'0 0.0
2014-Nov-05 09:32N 49°17' W 123°04'0 0.0
2014-Nov-05 08:32N 49°17' W 123°04'0 0.0
2014-Nov-05 07:32N 49°17' W 123°04'0 0.0
2014-Nov-05 06:32N 49°17' W 123°04'0 0.0
2014-Nov-05 05:32N 49°17' W 123°04'0 0.0
2014-Nov-05 04:32N 49°17' W 123°04'0 0.0
2014-Nov-05 03:32N 49°17' W 123°04'0 0.0
2014-Nov-05 02:32N 49°17' W 123°04'0 0.0
2014-Nov-05 01:32N 49°17' W 123°04'0 0.0
2014-Nov-05 00:32N 49°17' W 123°04'0 0.0
2014-Nov-04 23:32N 49°17' W 123°04'0 0.0
2014-Nov-04 22:32N 49°17' W 123°04'0 0.0
2014-Nov-04 21:32N 49°17' W 123°04'0 0.0
2014-Nov-04 20:32N 49°17' W 123°04'0 0.0
2014-Nov-04 19:32N 49°17' W 123°04'0 0.0
2014-Nov-04 18:32N 49°17' W 123°04'0 0.0
2014-Nov-04 17:32N 49°17' W 123°04'0 0.0
2014-Nov-04 16:32N 49°17' W 123°04'0 0.0
2014-Nov-04 15:32N 49°17' W 123°04'0 0.0
2014-Nov-04 14:32N 49°17' W 123°04'0 0.0
2014-Nov-04 13:32N 49°17' W 123°04'  
Track history (hours):
 
Tides and Currents Weather Stations Pressure Air Temp Water Temp Dewpoint Dewpoint Depression Visibility Wind Speed Wind Dir Waves Ship Positions

Tetien Trader

Last reported at 2014-Nov-14 12:33 UTC. Time now 2014-Nov-21 20:33 UTC.
Position N 48°42' W 126°24'.

Length 225 m; draft 13.1 m.

Type: Cargo ship. MMSI: 239875000.

Date/timePositionNaut miles runAvg speedWind from/ knotsBaromVisibWave heightAir tempDewpointWater temp
2014-Nov-14 12:33N 48°42' W 126°24'1212.6
2014-Nov-14 11:33N 48°39' W 126°05'1312.5
2014-Nov-14 10:33N 48°37' W 125°47'1212.5
2014-Nov-14 09:33N 48°34' W 125°29'1312.6
2014-Nov-14 08:33N 48°31' W 125°10'1313.2
2014-Nov-14 07:33N 48°31' W 124°50'1313.5
2014-Nov-14 06:33N 48°27' W 124°31'1413.5
2014-Nov-14 05:33N 48°22' W 124°12'1313.5
2014-Nov-14 04:33N 48°17' W 123°53'1312.9
2014-Nov-14 03:32N 48°16' W 123°33'1110.9
2014-Nov-14 02:33N 48°23' W 123°22'9 9.2
2014-Nov-14 01:33N 48°30' W 123°13'1212.5
2014-Nov-14 00:33N 48°43' W 123°13'10 9.8
2014-Nov-13 23:33N 48°51' W 123°04'1313.1
2014-Nov-13 22:33N 49°00' W 123°18'1111.4
2014-Nov-13 21:33N 49°11' W 123°20'1110.8
2014-Nov-13 20:33N 49°19' W 123°09'3 3.3
2014-Nov-13 19:32N 49°17' W 123°04'0 0.0
2014-Nov-13 18:32N 49°17' W 123°04'0 0.0
2014-Nov-13 17:32N 49°17' W 123°04'0 0.0
2014-Nov-13 16:32N 49°17' W 123°04'0 0.0
2014-Nov-13 15:32N 49°17' W 123°04'0 0.0
2014-Nov-13 14:32N 49°17' W 123°04'0 0.0
2014-Nov-13 13:29N 49°17' W 123°04'0 0.0
2014-Nov-13 12:32N 49°17' W 123°04'0 0.0
2014-Nov-13 11:32N 49°17' W 123°04'0 0.0
2014-Nov-13 10:32N 49°17' W 123°04'0 0.0
2014-Nov-13 09:32N 49°17' W 123°04'0 0.0
2014-Nov-13 08:32N 49°17' W 123°04'0 0.0
2014-Nov-13 07:32N 49°17' W 123°04'0 0.0
2014-Nov-13 06:32N 49°17' W 123°04'0 0.0
2014-Nov-13 05:32N 49°17' W 123°04'0 0.0
2014-Nov-13 04:32N 49°17' W 123°04'0 0.0
2014-Nov-13 03:32N 49°17' W 123°04'0 0.0
2014-Nov-13 02:32N 49°17' W 123°04'0 0.0
2014-Nov-13 01:32N 49°17' W 123°04'0 0.0
2014-Nov-13 00:32N 49°17' W 123°04'0 0.0
2014-Nov-12 23:32N 49°17' W 123°04'0 0.0
2014-Nov-12 22:32N 49°17' W 123°04'0 0.0
2014-Nov-12 21:32N 49°17' W 123°04'0 0.0
2014-Nov-12 20:31N 49°17' W 123°04'0 0.0
2014-Nov-12 19:34N 49°17' W 123°04'0 0.0
2014-Nov-12 18:31N 49°17' W 123°04'0 0.0
2014-Nov-12 17:31N 49°17' W 123°04'0 0.0
2014-Nov-12 16:31N 49°17' W 123°04'0 0.0
2014-Nov-12 15:31N 49°17' W 123°04'0 0.0
2014-Nov-12 14:31N 49°17' W 123°04'0 0.0
2014-Nov-12 13:31N 49°17' W 123°04'0 0.0
2014-Nov-12 12:31N 49°17' W 123°04'0 0.0
2014-Nov-12 11:31N 49°17' W 123°04'0 0.0
2014-Nov-12 10:31N 49°17' W 123°04'0 0.0
2014-Nov-12 09:31N 49°17' W 123°04'0 0.0
2014-Nov-12 08:31N 49°17' W 123°04'0 0.0
2014-Nov-12 07:31N 49°17' W 123°04'0 0.0
2014-Nov-12 06:31N 49°17' W 123°04'0 0.0
2014-Nov-12 05:34N 49°17' W 123°04'0 0.0
2014-Nov-12 04:31N 49°17' W 123°04'0 0.0
2014-Nov-12 03:31N 49°17' W 123°04'0 0.0
2014-Nov-12 02:31N 49°17' W 123°04'0 0.0
2014-Nov-12 01:31N 49°17' W 123°04'0 0.0
2014-Nov-12 00:31N 49°17' W 123°04'0 0.3
2014-Nov-11 23:33N 49°18' W 123°04'5 4.8
2014-Nov-11 22:33N 49°18' W 123°12'0 0.1
2014-Nov-11 21:33N 49°18' W 123°12'0 0.0
2014-Nov-11 20:30N 49°18' W 123°12'0 0.0
2014-Nov-11 19:30N 49°18' W 123°12'0 0.0
2014-Nov-11 18:33N 49°18' W 123°12'0 0.1
2014-Nov-11 17:33N 49°18' W 123°12'0 0.1
2014-Nov-11 16:33N 49°18' W 123°12'0 0.0
2014-Nov-11 15:33N 49°18' W 123°12'0 0.0
2014-Nov-11 14:33N 49°18' W 123°12'0 0.2
2014-Nov-11 13:33N 49°18' W 123°12'0 0.2
2014-Nov-11 12:33N 49°18' W 123°11'0 0.0
2014-Nov-11 11:33N 49°18' W 123°11'0 0.0
2014-Nov-11 10:33N 49°18' W 123°11'0 0.1
2014-Nov-11 09:33N 49°18' W 123°12'0 0.0
2014-Nov-11 08:33N 49°18' W 123°12'0 0.0
2014-Nov-11 07:33N 49°18' W 123°12'0 0.0
2014-Nov-11 06:33N 49°18' W 123°12'0 0.0
2014-Nov-11 05:33N 49°18' W 123°12'0 0.0
2014-Nov-11 04:33N 49°18' W 123°12'0 0.0
2014-Nov-11 03:33N 49°18' W 123°11'0 0.1
2014-Nov-11 02:33N 49°18' W 123°11'0 0.0
2014-Nov-11 01:33N 49°18' W 123°11'0 0.0
2014-Nov-11 00:33N 49°18' W 123°11'0 0.0
2014-Nov-10 23:33N 49°18' W 123°11'0 0.0
2014-Nov-10 22:33N 49°18' W 123°11'0 0.1
2014-Nov-10 21:33N 49°18' W 123°11'0 0.1
2014-Nov-10 20:33N 49°18' W 123°12'0 0.1
2014-Nov-10 19:33N 49°18' W 123°12'0 0.0
2014-Nov-10 18:33N 49°18' W 123°12'0 0.0
2014-Nov-10 17:33N 49°18' W 123°12'0 0.0
2014-Nov-10 16:33N 49°18' W 123°12'0 0.0
2014-Nov-10 15:33N 49°18' W 123°12'0 0.0
2014-Nov-10 14:33N 49°18' W 123°12'0 0.1
2014-Nov-10 13:33N 49°18' W 123°11'0 0.0
2014-Nov-10 12:33N 49°18' W 123°11'0 0.0
2014-Nov-10 11:33N 49°18' W 123°11'0 0.1
2014-Nov-10 10:33N 49°18' W 123°11'0 0.0
2014-Nov-10 09:33N 49°18' W 123°11'0 0.1
2014-Nov-10 08:33N 49°18' W 123°11'0 0.0
2014-Nov-10 07:33N 49°18' W 123°11'0 0.1
2014-Nov-10 06:30N 49°18' W 123°11'0 0.0
2014-Nov-10 05:33N 49°18' W 123°11'0 0.1
2014-Nov-10 04:33N 49°18' W 123°11'0 0.0
2014-Nov-10 03:33N 49°18' W 123°11'0 0.0
2014-Nov-10 02:33N 49°18' W 123°11'0 0.1
2014-Nov-10 01:33N 49°18' W 123°11'0 0.0
2014-Nov-10 00:30N 49°18' W 123°11'0 0.0
2014-Nov-09 23:30N 49°18' W 123°11'0 0.0
2014-Nov-09 22:33N 49°18' W 123°11'0 0.1
2014-Nov-09 21:30N 49°18' W 123°11'0 0.0
2014-Nov-09 20:30N 49°18' W 123°11'0 0.2
2014-Nov-09 19:33N 49°18' W 123°12'0 0.1
2014-Nov-09 18:33N 49°18' W 123°12'0 0.0
2014-Nov-09 17:30N 49°18' W 123°12'0 0.0
2014-Nov-09 16:33N 49°18' W 123°12'0 0.0
2014-Nov-09 15:33N 49°18' W 123°12'0 0.0
2014-Nov-09 14:33N 49°18' W 123°12'0 0.0
2014-Nov-09 13:33N 49°18' W 123°12'0 0.0
2014-Nov-09 12:33N 49°18' W 123°12'0 0.0
2014-Nov-09 11:30N 49°18' W 123°12'0 0.1
2014-Nov-09 10:33N 49°18' W 123°12'0 0.0
2014-Nov-09 09:30N 49°18' W 123°12'0 0.0
2014-Nov-09 08:33N 49°18' W 123°12'0 0.0
2014-Nov-09 07:33N 49°18' W 123°11'0 0.1
2014-Nov-09 06:33N 49°18' W 123°11'0 0.1
2014-Nov-09 05:33N 49°18' W 123°12'0 0.1
2014-Nov-09 04:33N 49°18' W 123°11'0 0.1
2014-Nov-09 03:33N 49°18' W 123°11'0 0.0
2014-Nov-09 02:30N 49°18' W 123°11'0 0.0
2014-Nov-09 01:33N 49°18' W 123°11'0 0.0
2014-Nov-09 00:33N 49°18' W 123°11'0 0.0
2014-Nov-08 23:33N 49°18' W 123°11'0 0.0
2014-Nov-08 22:33N 49°18' W 123°11'0 0.0
2014-Nov-08 21:33N 49°18' W 123°11'0 0.0
2014-Nov-08 20:33N 49°18' W 123°11'0 0.1
2014-Nov-08 19:33N 49°18' W 123°11'0 0.1
2014-Nov-08 18:33N 49°18' W 123°12'0 0.1
2014-Nov-08 17:33N 49°18' W 123°12'0 0.0
2014-Nov-08 16:33N 49°18' W 123°12'0 0.0
2014-Nov-08 15:33N 49°18' W 123°12'0 0.0
2014-Nov-08 14:33N 49°18' W 123°12'0 0.1
2014-Nov-08 13:30N 49°18' W 123°12'0 0.0
2014-Nov-08 12:30N 49°18' W 123°12'0 0.0
2014-Nov-08 11:33N 49°18' W 123°12'0 0.1
2014-Nov-08 10:33N 49°18' W 123°11'0 0.0
2014-Nov-08 09:33N 49°18' W 123°11'0 0.0
2014-Nov-08 08:33N 49°18' W 123°11'0 0.1
2014-Nov-08 07:33N 49°18' W 123°11'0 0.1
2014-Nov-08 06:33N 49°18' W 123°11'0 0.0
2014-Nov-08 05:33N 49°18' W 123°11'0 0.1
2014-Nov-08 04:33N 49°18' W 123°11'0 0.0
2014-Nov-08 03:33N 49°18' W 123°11'0 0.0
2014-Nov-08 02:33N 49°18' W 123°11'0 0.0
2014-Nov-08 01:33N 49°18' W 123°11'0 0.0
2014-Nov-08 00:33N 49°18' W 123°11'0 0.0
2014-Nov-07 23:33N 49°18' W 123°11'0 0.0
2014-Nov-07 22:33N 49°18' W 123°11'0 0.0
2014-Nov-07 21:33N 49°18' W 123°11'0 0.1
2014-Nov-07 20:33N 49°18' W 123°11'0 0.1
2014-Nov-07 19:33N 49°18' W 123°11'0 0.1
2014-Nov-07 18:33N 49°18' W 123°11'0 0.1
2014-Nov-07 17:33N 49°18' W 123°12'0 0.1
2014-Nov-07 16:33N 49°18' W 123°12'0 0.1
2014-Nov-07 15:33N 49°18' W 123°12'0 0.0
2014-Nov-07 14:33N 49°18' W 123°12'0 0.2
2014-Nov-07 13:33N 49°18' W 123°11'0 0.1
2014-Nov-07 12:33N 49°18' W 123°11'0 0.0
2014-Nov-07 11:33N 49°18' W 123°11'0 0.0
2014-Nov-07 10:33N 49°18' W 123°11'0 0.0
2014-Nov-07 09:33N 49°18' W 123°11'0 0.1
2014-Nov-07 08:33N 49°18' W 123°11'3 3.3
2014-Nov-07 07:33N 49°18' W 123°06'2 1.7
2014-Nov-07 06:33N 49°17' W 123°04'0 0.0
2014-Nov-07 05:33N 49°17' W 123°04'0 0.0
2014-Nov-07 04:33N 49°17' W 123°04'0 0.0
2014-Nov-07 03:33N 49°17' W 123°04'0 0.0
2014-Nov-07 02:33N 49°17' W 123°04'0 0.0
2014-Nov-07 01:33N 49°17' W 123°04'0 0.0
2014-Nov-07 00:33N 49°17' W 123°04'0 0.0
2014-Nov-06 23:33N 49°17' W 123°04'0 0.0
2014-Nov-06 22:33N 49°17' W 123°04'0 0.0
2014-Nov-06 21:32N 49°17' W 123°04'0 0.0
2014-Nov-06 20:32N 49°17' W 123°04'0 0.0
2014-Nov-06 19:32N 49°17' W 123°04'0 0.0
2014-Nov-06 18:32N 49°17' W 123°04'0 0.0
2014-Nov-06 17:32N 49°17' W 123°04'0 0.0
2014-Nov-06 16:32N 49°17' W 123°04'0 0.0
2014-Nov-06 15:32N 49°17' W 123°04'0 0.0
2014-Nov-06 14:32N 49°17' W 123°04'0 0.0
2014-Nov-06 13:32N 49°17' W 123°04'0 0.0
2014-Nov-06 12:32N 49°17' W 123°04'0 0.0
2014-Nov-06 11:32N 49°17' W 123°04'0 0.0
2014-Nov-06 10:32N 49°17' W 123°04'0 0.0
2014-Nov-06 09:32N 49°17' W 123°04'0 0.0
2014-Nov-06 08:32N 49°17' W 123°04'0 0.0
2014-Nov-06 07:32N 49°17' W 123°04'0 0.0
2014-Nov-06 06:32N 49°17' W 123°04'0 0.0
2014-Nov-06 05:32N 49°17' W 123°04'0 0.0
2014-Nov-06 04:32N 49°17' W 123°04'0 0.0
2014-Nov-06 03:32N 49°17' W 123°04'0 0.0
2014-Nov-06 02:32N 49°17' W 123°04'0 0.0
2014-Nov-06 01:32N 49°17' W 123°04'0 0.0
2014-Nov-06 00:32N 49°17' W 123°04'0 0.0
2014-Nov-05 23:32N 49°17' W 123°04'0 0.0
2014-Nov-05 22:32N 49°17' W 123°04'0 0.0
2014-Nov-05 21:32N 49°17' W 123°04'0 0.0
2014-Nov-05 20:32N 49°17' W 123°04'0 0.0
2014-Nov-05 19:32N 49°17' W 123°04'0 0.0
2014-Nov-05 18:32N 49°17' W 123°04'0 0.0
2014-Nov-05 17:32N 49°17' W 123°04'0 0.0
2014-Nov-05 16:29N 49°17' W 123°04'0 0.0
2014-Nov-05 15:32N 49°17' W 123°04'0 0.0
2014-Nov-05 14:32N 49°17' W 123°04'0 0.0
2014-Nov-05 13:29N 49°17' W 123°04'0 0.0
2014-Nov-05 12:32N 49°17' W 123°04'0 0.0
2014-Nov-05 11:32N 49°17' W 123°04'0 0.0
2014-Nov-05 10:32N 49°17' W 123°04'0 0.0
2014-Nov-05 09:32N 49°17' W 123°04'0 0.0
2014-Nov-05 08:32N 49°17' W 123°04'0 0.0
2014-Nov-05 07:32N 49°17' W 123°04'0 0.0
2014-Nov-05 06:32N 49°17' W 123°04'0 0.0
2014-Nov-05 05:32N 49°17' W 123°04'0 0.0
2014-Nov-05 04:32N 49°17' W 123°04'0 0.0
2014-Nov-05 03:32N 49°17' W 123°04'0 0.0
2014-Nov-05 02:32N 49°17' W 123°04'0 0.0
2014-Nov-05 01:32N 49°17' W 123°04'0 0.0
2014-Nov-05 00:32N 49°17' W 123°04'0 0.0
2014-Nov-04 23:32N 49°17' W 123°04'0 0.0
2014-Nov-04 22:32N 49°17' W 123°04'0 0.0
2014-Nov-04 21:32N 49°17' W 123°04'0 0.0
2014-Nov-04 20:32N 49°17' W 123°04'0 0.0
2014-Nov-04 19:32N 49°17' W 123°04'0 0.0
2014-Nov-04 18:32N 49°17' W 123°04'0 0.0
2014-Nov-04 17:32N 49°17' W 123°04'0 0.0
2014-Nov-04 16:32N 49°17' W 123°04'0 0.0
2014-Nov-04 15:32N 49°17' W 123°04'0 0.0
2014-Nov-04 14:32N 49°17' W 123°04'0 0.0
2014-Nov-04 13:32N 49°17' W 123°04'  

Dump ship's entire track history